Clintonia Township, Illinois
Current Conditions -  °F | °C
As of 12:15 PM on Monday 26 Jan 2015 (Local Time) from KAAA Reporting Station
Unknown Precip Unknown Precip  
Wind Chill: 24°   Ceiling: 900
Heat Index: 29°   Visibility: 1.5mi
Dew Point: 25°   Wind: 5mph
Humidity: 85%   Direction: 210°SSW
Pressure: 29.95"   Gusts: NA
Location:  40.143°N, 88.9637°W
Report Text: KAAA 261815Z AUTO 21004KT 1 1/2SM UP BKN009 OVC015 M02/M04 A2995 RMK AO2 T10181040
Loading
Personal Weather Stations






























Interactive Weather Map New forecast layout! Learn more

10-Day Weather Forecast

Advertisements
Track Severe Weather on mobile